sensor_id;sensor_type;location;lat;lon;timestamp;temperature;humidity
19261;DHT22;9764;48.114;11.670;2023-03-01T00:01:35;18.10;85.40
19261;DHT22;9764;48.114;11.670;2023-03-01T00:04:04;18.10;85.40
19261;DHT22;9764;48.114;11.670;2023-03-01T00:06:32;18.10;85.40
19261;DHT22;9764;48.114;11.670;2023-03-01T00:09:00;18.00;85.30
19261;DHT22;9764;48.114;11.670;2023-03-01T00:11:30;18.10;85.40
19261;DHT22;9764;48.114;11.670;2023-03-01T00:14:00;18.00;85.40
19261;DHT22;9764;48.114;11.670;2023-03-01T00:16:32;18.00;85.40
19261;DHT22;9764;48.114;11.670;2023-03-01T00:19:02;18.00;85.40
19261;DHT22;9764;48.114;11.670;2023-03-01T00:21:30;18.00;85.30
19261;DHT22;9764;48.114;11.670;2023-03-01T00:23:58;18.00;85.40
19261;DHT22;9764;48.114;11.670;2023-03-01T00:26:27;18.00;85.40
19261;DHT22;9764;48.114;11.670;2023-03-01T00:28:57;18.00;85.40
19261;DHT22;9764;48.114;11.670;2023-03-01T00:31:27;18.00;85.40
19261;DHT22;9764;48.114;11.670;2023-03-01T00:33:58;18.00;85.40
19261;DHT22;9764;48.114;11.670;2023-03-01T00:36:29;18.00;85.40
19261;DHT22;9764;48.114;11.670;2023-03-01T00:38:59;18.00;85.40
19261;DHT22;9764;48.114;11.670;2023-03-01T00:41:27;18.00;85.40
19261;DHT22;9764;48.114;11.670;2023-03-01T00:43:56;18.00;85.40
19261;DHT22;9764;48.114;11.670;2023-03-01T00:46:26;18.00;85.40
19261;DHT22;9764;48.114;11.670;2023-03-01T00:48:56;18.00;85.40
19261;DHT22;9764;48.114;11.670;2023-03-01T00:51:26;18.00;85.50
19261;DHT22;9764;48.114;11.670;2023-03-01T00:53:59;18.00;85.40
19261;DHT22;9764;48.114;11.670;2023-03-01T00:56:28;18.00;85.50
19261;DHT22;9764;48.114;11.670;2023-03-01T00:58:57;17.90;85.40
19261;DHT22;9764;48.114;11.670;2023-03-01T01:01:27;18.00;85.40
19261;DHT22;9764;48.114;11.670;2023-03-01T01:04:00;18.00;85.50
19261;DHT22;9764;48.114;11.670;2023-03-01T01:06:32;17.90;85.40
19261;DHT22;9764;48.114;11.670;2023-03-01T01:09:02;17.90;85.40
19261;DHT22;9764;48.114;11.670;2023-03-01T01:11:32;17.90;85.40
19261;DHT22;9764;48.114;11.670;2023-03-01T01:14:02;17.90;85.40
19261;DHT22;9764;48.114;11.670;2023-03-01T01:16:30;17.90;85.40
19261;DHT22;9764;48.114;11.670;2023-03-01T01:19:00;17.90;85.40
19261;DHT22;9764;48.114;11.670;2023-03-01T01:21:29;17.90;85.40
19261;DHT22;9764;48.114;11.670;2023-03-01T01:23:58;17.90;85.40
19261;DHT22;9764;48.114;11.670;2023-03-01T01:26:28;17.90;85.40
19261;DHT22;9764;48.114;11.670;2023-03-01T01:28:57;17.90;85.50
19261;DHT22;9764;48.114;11.670;2023-03-01T01:31:27;17.90;85.40
19261;DHT22;9764;48.114;11.670;2023-03-01T01:33:56;17.90;85.40
19261;DHT22;9764;48.114;11.670;2023-03-01T01:36:27;17.90;85.40
19261;DHT22;9764;48.114;11.670;2023-03-01T01:38:56;17.90;85.40
19261;DHT22;9764;48.114;11.670;2023-03-01T01:41:25;17.90;85.40
19261;DHT22;9764;48.114;11.670;2023-03-01T01:44:13;17.90;85.40
19261;DHT22;9764;48.114;11.670;2023-03-01T01:46:43;17.90;85.40
19261;DHT22;9764;48.114;11.670;2023-03-01T01:49:19;17.90;85.40
19261;DHT22;9764;48.114;11.670;2023-03-01T01:51:56;17.90;85.50
19261;DHT22;9764;48.114;11.670;2023-03-01T01:54:27;17.90;85.40
19261;DHT22;9764;48.114;11.670;2023-03-01T01:57:01;17.90;85.40
19261;DHT22;9764;48.114;11.670;2023-03-01T01:59:31;17.90;85.50
19261;DHT22;9764;48.114;11.670;2023-03-01T02:02:02;17.90;85.50
19261;DHT22;9764;48.114;11.670;2023-03-01T02:04:32;17.90;85.40
19261;DHT22;9764;48.114;11.670;2023-03-01T02:07:06;17.90;86.30
19261;DHT22;9764;48.114;11.670;2023-03-01T02:09:35;17.90;85.50
19261;DHT22;9764;48.114;11.670;2023-03-01T02:12:04;17.90;85.50
19261;DHT22;9764;48.114;11.670;2023-03-01T02:14:33;17.90;85.40
19261;DHT22;9764;48.114;11.670;2023-03-01T02:17:02;17.90;85.40
19261;DHT22;9764;48.114;11.670;2023-03-01T02:19:43;17.90;85.50
19261;DHT22;9764;48.114;11.670;2023-03-01T02:22:20;17.90;85.50
19261;DHT22;9764;48.114;11.670;2023-03-01T02:25:03;17.90;85.40
19261;DHT22;9764;48.114;11.670;2023-03-01T02:27:40;17.80;85.40
19261;DHT22;9764;48.114;11.670;2023-03-01T02:30:12;17.90;85.50
19261;DHT22;9764;48.114;11.670;2023-03-01T02:32:41;17.80;85.40
19261;DHT22;9764;48.114;11.670;2023-03-01T02:35:12;17.80;85.40
19261;DHT22;9764;48.114;11.670;2023-03-01T02:37:42;17.80;85.40
19261;DHT22;9764;48.114;11.670;2023-03-01T02:40:13;17.80;85.40
19261;DHT22;9764;48.114;11.670;2023-03-01T02:42:49;17.80;85.40
19261;DHT22;9764;48.114;11.670;2023-03-01T02:45:19;17.80;85.40
19261;DHT22;9764;48.114;11.670;2023-03-01T02:47:48;17.80;85.40
19261;DHT22;9764;48.114;11.670;2023-03-01T02:50:25;17.80;85.40
19261;DHT22;9764;48.114;11.670;2023-03-01T02:53:08;17.80;85.40
19261;DHT22;9764;48.114;11.670;2023-03-01T02:55:39;17.90;85.40
19261;DHT22;9764;48.114;11.670;2023-03-01T02:58:08;17.80;85.40
19261;DHT22;9764;48.114;11.670;2023-03-01T03:00:42;17.80;85.40
19261;DHT22;9764;48.114;11.670;2023-03-01T03:03:14;17.90;85.40
19261;DHT22;9764;48.114;11.670;2023-03-01T03:05:43;17.80;85.40
19261;DHT22;9764;48.114;11.670;2023-03-01T03:08:11;17.80;85.40
19261;DHT22;9764;48.114;11.670;2023-03-01T03:10:41;17.80;85.30
19261;DHT22;9764;48.114;11.670;2023-03-01T03:13:12;17.80;85.40
19261;DHT22;9764;48.114;11.670;2023-03-01T03:15:43;17.80;85.40
19261;DHT22;9764;48.114;11.670;2023-03-01T03:18:13;17.80;85.40
19261;DHT22;9764;48.114;11.670;2023-03-01T03:20:43;17.80;85.40
19261;DHT22;9764;48.114;11.670;2023-03-01T03:23:13;17.80;85.40
19261;DHT22;9764;48.114;11.670;2023-03-01T03:25:41;17.80;85.40
19261;DHT22;9764;48.114;11.670;2023-03-01T03:28:09;17.80;85.40
19261;DHT22;9764;48.114;11.670;2023-03-01T03:30:40;17.80;85.40
19261;DHT22;9764;48.114;11.670;2023-03-01T03:33:11;17.80;85.40
19261;DHT22;9764;48.114;11.670;2023-03-01T03:35:42;17.80;85.40
19261;DHT22;9764;48.114;11.670;2023-03-01T03:38:12;17.80;85.40
19261;DHT22;9764;48.114;11.670;2023-03-01T03:40:44;17.80;85.40
19261;DHT22;9764;48.114;11.670;2023-03-01T03:43:15;17.80;85.40
19261;DHT22;9764;48.114;11.670;2023-03-01T03:45:44;17.80;85.40
19261;DHT22;9764;48.114;11.670;2023-03-01T03:48:15;17.80;85.40
19261;DHT22;9764;48.114;11.670;2023-03-01T03:50:47;17.80;85.40
19261;DHT22;9764;48.114;11.670;2023-03-01T03:53:16;17.80;85.40
19261;DHT22;9764;48.114;11.670;2023-03-01T03:55:44;17.80;85.40
19261;DHT22;9764;48.114;11.670;2023-03-01T03:58:16;17.80;85.40
19261;DHT22;9764;48.114;11.670;2023-03-01T04:00:49;17.80;85.40
19261;DHT22;9764;48.114;11.670;2023-03-01T04:03:19;17.80;85.40
19261;DHT22;9764;48.114;11.670;2023-03-01T04:05:50;17.80;85.40
19261;DHT22;9764;48.114;11.670;2023-03-01T04:08:20;17.80;85.40
19261;DHT22;9764;48.114;11.670;2023-03-01T04:10:50;17.80;85.50
19261;DHT22;9764;48.114;11.670;2023-03-01T04:13:19;17.80;85.50
19261;DHT22;9764;48.114;11.670;2023-03-01T04:15:48;17.80;85.50
19261;DHT22;9764;48.114;11.670;2023-03-01T04:18:20;17.80;85.50
19261;DHT22;9764;48.114;11.670;2023-03-01T04:20:49;17.80;85.60
19261;DHT22;9764;48.114;11.670;2023-03-01T04:23:19;17.80;85.60
19261;DHT22;9764;48.114;11.670;2023-03-01T04:25:50;17.80;85.60
19261;DHT22;9764;48.114;11.670;2023-03-01T04:28:23;17.80;85.60
19261;DHT22;9764;48.114;11.670;2023-03-01T04:30:52;17.80;85.70
19261;DHT22;9764;48.114;11.670;2023-03-01T04:33:22;17.80;85.80
19261;DHT22;9764;48.114;11.670;2023-03-01T04:35:51;17.80;85.80
19261;DHT22;9764;48.114;11.670;2023-03-01T04:38:20;17.80;85.90
19261;DHT22;9764;48.114;11.670;2023-03-01T04:40:49;17.80;85.90
19261;DHT22;9764;48.114;11.670;2023-03-01T04:43:17;17.80;85.90
19261;DHT22;9764;48.114;11.670;2023-03-01T04:45:45;17.80;85.90
19261;DHT22;9764;48.114;11.670;2023-03-01T04:48:13;17.80;85.90
19261;DHT22;9764;48.114;11.670;2023-03-01T04:50:43;17.80;86.00
19261;DHT22;9764;48.114;11.670;2023-03-01T04:53:11;17.80;86.00
19261;DHT22;9764;48.114;11.670;2023-03-01T04:55:39;17.80;86.10
19261;DHT22;9764;48.114;11.670;2023-03-01T04:58:08;17.80;86.10
19261;DHT22;9764;48.114;11.670;2023-03-01T05:00:36;17.80;86.10
19261;DHT22;9764;48.114;11.670;2023-03-01T05:03:04;17.80;86.10
19261;DHT22;9764;48.114;11.670;2023-03-01T05:05:34;17.80;86.10
19261;DHT22;9764;48.114;11.670;2023-03-01T05:08:07;17.80;86.10
19261;DHT22;9764;48.114;11.670;2023-03-01T05:10:36;17.80;86.10
19261;DHT22;9764;48.114;11.670;2023-03-01T05:13:05;17.80;86.10
19261;DHT22;9764;48.114;11.670;2023-03-01T05:15:34;17.80;86.10
19261;DHT22;9764;48.114;11.670;2023-03-01T05:18:03;17.80;86.10
19261;DHT22;9764;48.114;11.670;2023-03-01T05:20:38;17.80;86.20
19261;DHT22;9764;48.114;11.670;2023-03-01T05:23:07;17.90;86.20
19261;DHT22;9764;48.114;11.670;2023-03-01T05:25:36;17.80;86.90
19261;DHT22;9764;48.114;11.670;2023-03-01T05:28:11;17.80;86.90
19261;DHT22;9764;48.114;11.670;2023-03-01T05:30:40;17.80;86.20
19261;DHT22;9764;48.114;11.670;2023-03-01T05:33:09;17.90;86.20
19261;DHT22;9764;48.114;11.670;2023-03-01T05:35:40;17.90;86.20
19261;DHT22;9764;48.114;11.670;2023-03-01T05:38:11;17.90;86.10
19261;DHT22;9764;48.114;11.670;2023-03-01T05:40:41;17.90;86.10
19261;DHT22;9764;48.114;11.670;2023-03-01T05:43:09;17.90;86.10
19261;DHT22;9764;48.114;11.670;2023-03-01T05:45:38;17.90;86.90
19261;DHT22;9764;48.114;11.670;2023-03-01T05:48:08;17.90;86.10
19261;DHT22;9764;48.114;11.670;2023-03-01T05:50:39;17.90;86.10
19261;DHT22;9764;48.114;11.670;2023-03-01T05:53:12;17.90;86.10
19261;DHT22;9764;48.114;11.670;2023-03-01T05:55:41;17.90;86.10
19261;DHT22;9764;48.114;11.670;2023-03-01T05:58:12;17.90;86.10
19261;DHT22;9764;48.114;11.670;2023-03-01T06:00:43;17.90;86.10
19261;DHT22;9764;48.114;11.670;2023-03-01T06:03:12;17.90;86.10
19261;DHT22;9764;48.114;11.670;2023-03-01T06:05:41;17.90;86.10
19261;DHT22;9764;48.114;11.670;2023-03-01T06:08:11;17.90;86.10
19261;DHT22;9764;48.114;11.670;2023-03-01T06:10:40;17.90;86.10
19261;DHT22;9764;48.114;11.670;2023-03-01T06:13:08;17.90;86.10
19261;DHT22;9764;48.114;11.670;2023-03-01T06:15:37;17.90;86.00
19261;DHT22;9764;48.114;11.670;2023-03-01T06:18:05;17.90;86.10
19261;DHT22;9764;48.114;11.670;2023-03-01T06:20:33;17.90;86.00
19261;DHT22;9764;48.114;11.670;2023-03-01T06:23:02;17.90;86.00
19261;DHT22;9764;48.114;11.670;2023-03-01T06:25:32;17.90;86.00
19261;DHT22;9764;48.114;11.670;2023-03-01T06:28:00;17.90;86.00
19261;DHT22;9764;48.114;11.670;2023-03-01T06:30:28;17.90;86.00
19261;DHT22;9764;48.114;11.670;2023-03-01T06:32:57;17.90;86.00
19261;DHT22;9764;48.114;11.670;2023-03-01T06:35:28;17.90;85.90
19261;DHT22;9764;48.114;11.670;2023-03-01T06:37:58;17.90;85.90
19261;DHT22;9764;48.114;11.670;2023-03-01T06:40:27;17.90;86.70
19261;DHT22;9764;48.114;11.670;2023-03-01T06:42:57;17.90;85.90
19261;DHT22;9764;48.114;11.670;2023-03-01T06:45:26;17.90;85.90
19261;DHT22;9764;48.114;11.670;2023-03-01T06:48:01;17.90;85.90
19261;DHT22;9764;48.114;11.670;2023-03-01T06:50:30;18.00;85.90
19261;DHT22;9764;48.114;11.670;2023-03-01T06:52:58;17.90;85.80
19261;DHT22;9764;48.114;11.670;2023-03-01T06:55:27;18.00;85.80
19261;DHT22;9764;48.114;11.670;2023-03-01T06:57:56;18.00;85.80
19261;DHT22;9764;48.114;11.670;2023-03-01T07:00:26;18.00;85.80
19261;DHT22;9764;48.114;11.670;2023-03-01T07:02:54;18.00;85.80
19261;DHT22;9764;48.114;11.670;2023-03-01T07:05:23;18.00;85.80
19261;DHT22;9764;48.114;11.670;2023-03-01T07:07:53;18.00;85.80
19261;DHT22;9764;48.114;11.670;2023-03-01T07:10:22;18.00;85.70
19261;DHT22;9764;48.114;11.670;2023-03-01T07:12:53;18.00;85.70
19261;DHT22;9764;48.114;11.670;2023-03-01T07:15:23;18.00;85.70
19261;DHT22;9764;48.114;11.670;2023-03-01T07:17:52;18.00;85.70
19261;DHT22;9764;48.114;11.670;2023-03-01T07:20:20;18.00;85.70
19261;DHT22;9764;48.114;11.670;2023-03-01T07:22:51;18.10;85.80
19261;DHT22;9764;48.114;11.670;2023-03-01T07:25:20;18.10;85.90
19261;DHT22;9764;48.114;11.670;2023-03-01T07:27:51;18.10;86.60
19261;DHT22;9764;48.114;11.670;2023-03-01T07:30:20;18.20;86.50
19261;DHT22;9764;48.114;11.670;2023-03-01T07:32:50;18.20;86.80
19261;DHT22;9764;48.114;11.670;2023-03-01T07:35:21;18.20;86.70
19261;DHT22;9764;48.114;11.670;2023-03-01T07:37:50;18.20;86.70
19261;DHT22;9764;48.114;11.670;2023-03-01T07:40:18;18.20;86.70
19261;DHT22;9764;48.114;11.670;2023-03-01T07:42:47;18.30;87.00
19261;DHT22;9764;48.114;11.670;2023-03-01T07:45:15;18.30;87.00
19261;DHT22;9764;48.114;11.670;2023-03-01T07:47:43;18.30;87.00
19261;DHT22;9764;48.114;11.670;2023-03-01T07:50:13;18.30;87.10
19261;DHT22;9764;48.114;11.670;2023-03-01T07:52:44;18.30;87.20
19261;DHT22;9764;48.114;11.670;2023-03-01T07:55:13;18.40;87.40
19261;DHT22;9764;48.114;11.670;2023-03-01T07:57:41;18.40;87.50
19261;DHT22;9764;48.114;11.670;2023-03-01T08:00:11;18.40;87.40
19261;DHT22;9764;48.114;11.670;2023-03-01T08:02:40;18.40;87.40
19261;DHT22;9764;48.114;11.670;2023-03-01T08:05:09;18.40;87.40
19261;DHT22;9764;48.114;11.670;2023-03-01T08:07:39;18.40;87.30
19261;DHT22;9764;48.114;11.670;2023-03-01T08:10:09;18.50;87.40
19261;DHT22;9764;48.114;11.670;2023-03-01T08:12:38;18.50;87.30
19261;DHT22;9764;48.114;11.670;2023-03-01T08:15:08;18.50;87.30
19261;DHT22;9764;48.114;11.670;2023-03-01T08:17:37;18.60;87.40
19261;DHT22;9764;48.114;11.670;2023-03-01T08:20:06;18.60;87.50
19261;DHT22;9764;48.114;11.670;2023-03-01T08:22:34;18.60;87.50
19261;DHT22;9764;48.114;11.670;2023-03-01T08:25:05;18.60;87.40
19261;DHT22;9764;48.114;11.670;2023-03-01T08:27:33;18.60;87.40
19261;DHT22;9764;48.114;11.670;2023-03-01T08:30:03;18.60;87.40
19261;DHT22;9764;48.114;11.670;2023-03-01T08:32:35;18.60;87.40
19261;DHT22;9764;48.114;11.670;2023-03-01T08:35:04;18.70;87.40
19261;DHT22;9764;48.114;11.670;2023-03-01T08:37:33;18.70;87.40
19261;DHT22;9764;48.114;11.670;2023-03-01T08:40:01;18.70;87.30
19261;DHT22;9764;48.114;11.670;2023-03-01T08:42:35;18.70;87.20
19261;DHT22;9764;48.114;11.670;2023-03-01T08:45:05;18.80;87.30
19261;DHT22;9764;48.114;11.670;2023-03-01T08:47:33;18.80;87.20
19261;DHT22;9764;48.114;11.670;2023-03-01T08:50:03;18.80;87.30
19261;DHT22;9764;48.114;11.670;2023-03-01T08:52:32;18.80;87.30
19261;DHT22;9764;48.114;11.670;2023-03-01T08:55:00;18.80;87.20
19261;DHT22;9764;48.114;11.670;2023-03-01T08:57:29;18.80;87.20
19261;DHT22;9764;48.114;11.670;2023-03-01T08:59:59;18.80;87.20
19261;DHT22;9764;48.114;11.670;2023-03-01T09:02:27;18.90;87.20
19261;DHT22;9764;48.114;11.670;2023-03-01T09:07:25;18.90;86.50
19261;DHT22;9764;48.114;11.670;2023-03-01T09:09:55;18.90;86.70
19261;DHT22;9764;48.114;11.670;2023-03-01T09:12:23;19.00;86.70
19261;DHT22;9764;48.114;11.670;2023-03-01T09:14:52;18.90;86.60
19261;DHT22;9764;48.114;11.670;2023-03-01T09:17:22;18.90;86.70
19261;DHT22;9764;48.114;11.670;2023-03-01T09:19:50;18.90;86.80
19261;DHT22;9764;48.114;11.670;2023-03-01T09:22:18;18.90;87.60
19261;DHT22;9764;48.114;11.670;2023-03-01T09:24:47;18.90;86.80
19261;DHT22;9764;48.114;11.670;2023-03-01T09:27:15;18.90;86.90
19261;DHT22;9764;48.114;11.670;2023-03-01T09:29:45;18.90;86.90
19261;DHT22;9764;48.114;11.670;2023-03-01T09:32:14;18.90;86.90
19261;DHT22;9764;48.114;11.670;2023-03-01T09:34:43;19.00;86.90
19261;DHT22;9764;48.114;11.670;2023-03-01T09:37:28;19.00;86.90
19261;DHT22;9764;48.114;11.670;2023-03-01T09:39:57;19.00;86.90
19261;DHT22;9764;48.114;11.670;2023-03-01T09:42:28;19.00;86.90
19261;DHT22;9764;48.114;11.670;2023-03-01T09:45:01;19.00;86.90
19261;DHT22;9764;48.114;11.670;2023-03-01T09:47:31;19.00;86.90
19261;DHT22;9764;48.114;11.670;2023-03-01T09:50:06;19.00;87.00
19261;DHT22;9764;48.114;11.670;2023-03-01T09:52:41;19.00;87.10
19261;DHT22;9764;48.114;11.670;2023-03-01T09:55:13;19.00;87.10
19261;DHT22;9764;48.114;11.670;2023-03-01T09:57:47;19.00;87.00
19261;DHT22;9764;48.114;11.670;2023-03-01T10:00:29;19.00;87.00
19261;DHT22;9764;48.114;11.670;2023-03-01T10:03:01;19.00;87.00
19261;DHT22;9764;48.114;11.670;2023-03-01T10:05:41;19.00;87.20
19261;DHT22;9764;48.114;11.670;2023-03-01T10:08:26;19.10;87.20
19261;DHT22;9764;48.114;11.670;2023-03-01T10:10:57;19.10;87.00
19261;DHT22;9764;48.114;11.670;2023-03-01T10:13:29;19.10;87.10
19261;DHT22;9764;48.114;11.670;2023-03-01T10:16:05;19.10;87.00
19261;DHT22;9764;48.114;11.670;2023-03-01T10:18:34;19.20;87.10
19261;DHT22;9764;48.114;11.670;2023-03-01T10:21:14;19.10;86.90
19261;DHT22;9764;48.114;11.670;2023-03-01T10:23:43;19.20;87.00
19261;DHT22;9764;48.114;11.670;2023-03-01T10:26:27;19.20;87.10
19261;DHT22;9764;48.114;11.670;2023-03-01T10:29:02;19.10;87.00
19261;DHT22;9764;48.114;11.670;2023-03-01T10:31:38;19.20;87.10
19261;DHT22;9764;48.114;11.670;2023-03-01T10:34:13;19.20;87.20
19261;DHT22;9764;48.114;11.670;2023-03-01T10:36:44;19.20;87.10
19261;DHT22;9764;48.114;11.670;2023-03-01T10:39:17;19.20;87.20
19261;DHT22;9764;48.114;11.670;2023-03-01T10:41:55;19.20;87.30
19261;DHT22;9764;48.114;11.670;2023-03-01T10:44:43;19.20;87.10
19261;DHT22;9764;48.114;11.670;2023-03-01T10:47:20;19.20;87.10
19261;DHT22;9764;48.114;11.670;2023-03-01T10:49:54;19.20;87.10
19261;DHT22;9764;48.114;11.670;2023-03-01T10:52:30;19.20;87.00
19261;DHT22;9764;48.114;11.670;2023-03-01T10:55:01;19.20;87.10
19261;DHT22;9764;48.114;11.670;2023-03-01T10:57:38;19.20;87.10
19261;DHT22;9764;48.114;11.670;2023-03-01T11:00:23;19.20;86.90
19261;DHT22;9764;48.114;11.670;2023-03-01T11:03:08;19.20;86.80
19261;DHT22;9764;48.114;11.670;2023-03-01T11:05:51;19.20;86.50
19261;DHT22;9764;48.114;11.670;2023-03-01T11:08:32;19.20;86.50
19261;DHT22;9764;48.114;11.670;2023-03-01T11:11:16;19.30;86.40
19261;DHT22;9764;48.114;11.670;2023-03-01T11:13:54;19.20;86.40
19261;DHT22;9764;48.114;11.670;2023-03-01T11:16:25;19.30;86.40
19261;DHT22;9764;48.114;11.670;2023-03-01T11:19:00;19.30;86.40
19261;DHT22;9764;48.114;11.670;2023-03-01T11:21:30;19.30;86.40
19261;DHT22;9764;48.114;11.670;2023-03-01T11:24:03;19.30;86.30
19261;DHT22;9764;48.114;11.670;2023-03-01T11:26:37;19.20;86.20
19261;DHT22;9764;48.114;11.670;2023-03-01T11:29:12;19.30;86.20
19261;DHT22;9764;48.114;11.670;2023-03-01T11:31:44;19.30;86.20
19261;DHT22;9764;48.114;11.670;2023-03-01T11:34:33;19.30;86.40
19261;DHT22;9764;48.114;11.670;2023-03-01T11:37:10;19.20;86.50
19261;DHT22;9764;48.114;11.670;2023-03-01T11:39:45;19.30;86.70
19261;DHT22;9764;48.114;11.670;2023-03-01T11:42:18;19.30;86.70
19261;DHT22;9764;48.114;11.670;2023-03-01T11:44:49;19.30;86.70
19261;DHT22;9764;48.114;11.670;2023-03-01T11:47:33;19.30;86.70
19261;DHT22;9764;48.114;11.670;2023-03-01T11:50:18;19.30;86.80
19261;DHT22;9764;48.114;11.670;2023-03-01T11:52:57;19.30;87.70
19261;DHT22;9764;48.114;11.670;2023-03-01T11:55:42;19.30;86.70
19261;DHT22;9764;48.114;11.670;2023-03-01T11:58:25;19.40;86.80
19261;DHT22;9764;48.114;11.670;2023-03-01T12:01:14;19.40;86.80
19261;DHT22;9764;48.114;11.670;2023-03-01T12:07:01;19.40;86.90
19261;DHT22;9764;48.114;11.670;2023-03-01T12:09:43;19.40;86.90
19261;DHT22;9764;48.114;11.670;2023-03-01T12:12:32;19.40;86.70
19261;DHT22;9764;48.114;11.670;2023-03-01T12:15:46;19.50;86.90
19261;DHT22;9764;48.114;11.670;2023-03-01T12:21:19;19.40;86.80
19261;DHT22;9764;48.114;11.670;2023-03-01T12:24:23;19.40;86.80
19261;DHT22;9764;48.114;11.670;2023-03-01T12:27:05;19.50;86.80
19261;DHT22;9764;48.114;11.670;2023-03-01T12:29:42;19.50;86.60
19261;DHT22;9764;48.114;11.670;2023-03-01T12:32:24;19.50;86.70
19261;DHT22;9764;48.114;11.670;2023-03-01T12:35:31;19.50;86.80
19261;DHT22;9764;48.114;11.670;2023-03-01T12:38:14;19.50;86.70
19261;DHT22;9764;48.114;11.670;2023-03-01T12:41:01;19.60;86.70
19261;DHT22;9764;48.114;11.670;2023-03-01T12:43:44;19.50;86.50
19261;DHT22;9764;48.114;11.670;2023-03-01T12:46:25;19.60;86.80
19261;DHT22;9764;48.114;11.670;2023-03-01T12:49:04;19.60;86.70
19261;DHT22;9764;48.114;11.670;2023-03-01T12:51:38;19.60;86.60
19261;DHT22;9764;48.114;11.670;2023-03-01T12:54:14;19.60;86.60
19261;DHT22;9764;48.114;11.670;2023-03-01T12:56:43;19.60;86.70
19261;DHT22;9764;48.114;11.670;2023-03-01T12:59:23;19.60;87.10
19261;DHT22;9764;48.114;11.670;2023-03-01T13:02:02;19.60;86.90
19261;DHT22;9764;48.114;11.670;2023-03-01T13:04:37;19.60;86.90
19261;DHT22;9764;48.114;11.670;2023-03-01T13:07:18;19.60;86.60
19261;DHT22;9764;48.114;11.670;2023-03-01T13:09:51;19.60;86.90
19261;DHT22;9764;48.114;11.670;2023-03-01T13:12:44;19.60;86.90
19261;DHT22;9764;48.114;11.670;2023-03-01T13:15:26;19.60;86.70
19261;DHT22;9764;48.114;11.670;2023-03-01T13:17:58;19.60;86.70
19261;DHT22;9764;48.114;11.670;2023-03-01T13:20:30;19.70;86.90
19261;DHT22;9764;48.114;11.670;2023-03-01T13:23:03;19.70;86.90
19261;DHT22;9764;48.114;11.670;2023-03-01T13:25:32;19.70;86.50
19261;DHT22;9764;48.114;11.670;2023-03-01T13:31:55;19.70;86.80
19261;DHT22;9764;48.114;11.670;2023-03-01T13:34:02;19.70;86.90
19261;DHT22;9764;48.114;11.670;2023-03-01T13:36:47;19.70;86.90
19261;DHT22;9764;48.114;11.670;2023-03-01T13:39:30;19.70;86.80
19261;DHT22;9764;48.114;11.670;2023-03-01T13:42:02;19.70;86.50
19261;DHT22;9764;48.114;11.670;2023-03-01T13:44:33;19.70;86.80
19261;DHT22;9764;48.114;11.670;2023-03-01T13:47:13;19.70;86.90
19261;DHT22;9764;48.114;11.670;2023-03-01T13:49:47;19.70;87.00
19261;DHT22;9764;48.114;11.670;2023-03-01T13:52:38;19.70;86.90
19261;DHT22;9764;48.114;11.670;2023-03-01T13:55:17;19.70;86.80
19261;DHT22;9764;48.114;11.670;2023-03-01T13:57:48;19.70;86.90
19261;DHT22;9764;48.114;11.670;2023-03-01T14:00:36;19.70;86.80
19261;DHT22;9764;48.114;11.670;2023-03-01T14:03:10;19.80;86.90
19261;DHT22;9764;48.114;11.670;2023-03-01T14:05:42;19.80;86.50
19261;DHT22;9764;48.114;11.670;2023-03-01T14:08:23;19.80;86.50
19261;DHT22;9764;48.114;11.670;2023-03-01T14:11:07;19.80;87.20
19261;DHT22;9764;48.114;11.670;2023-03-01T14:13:52;19.80;87.40
19261;DHT22;9764;48.114;11.670;2023-03-01T14:16:31;19.80;88.40
19261;DHT22;9764;48.114;11.670;2023-03-01T14:19:12;19.80;88.80
19261;DHT22;9764;48.114;11.670;2023-03-01T14:22:04;19.80;88.80
19261;DHT22;9764;48.114;11.670;2023-03-01T14:24:40;19.80;89.00
19261;DHT22;9764;48.114;11.670;2023-03-01T14:27:12;19.80;89.10
19261;DHT22;9764;48.114;11.670;2023-03-01T14:29:41;19.80;89.20
19261;DHT22;9764;48.114;11.670;2023-03-01T14:32:12;19.90;89.40
19261;DHT22;9764;48.114;11.670;2023-03-01T14:34:47;19.90;89.10
19261;DHT22;9764;48.114;11.670;2023-03-01T14:37:21;19.90;89.20
19261;DHT22;9764;48.114;11.670;2023-03-01T14:39:51;19.90;89.00
19261;DHT22;9764;48.114;11.670;2023-03-01T14:42:21;19.90;88.80
19261;DHT22;9764;48.114;11.670;2023-03-01T14:44:51;20.00;88.80
19261;DHT22;9764;48.114;11.670;2023-03-01T14:47:26;20.00;88.50
19261;DHT22;9764;48.114;11.670;2023-03-01T14:49:59;20.00;88.40
19261;DHT22;9764;48.114;11.670;2023-03-01T14:52:34;20.00;88.10
19261;DHT22;9764;48.114;11.670;2023-03-01T14:55:06;20.00;87.80
19261;DHT22;9764;48.114;11.670;2023-03-01T14:57:35;20.00;87.40
19261;DHT22;9764;48.114;11.670;2023-03-01T15:00:06;20.00;87.40
19261;DHT22;9764;48.114;11.670;2023-03-01T15:02:35;20.00;87.60
19261;DHT22;9764;48.114;11.670;2023-03-01T15:05:08;20.00;87.60
19261;DHT22;9764;48.114;11.670;2023-03-01T15:07:40;20.00;87.70
19261;DHT22;9764;48.114;11.670;2023-03-01T15:10:20;20.00;87.50
19261;DHT22;9764;48.114;11.670;2023-03-01T15:12:49;20.00;87.50
19261;DHT22;9764;48.114;11.670;2023-03-01T15:15:22;20.00;87.30
19261;DHT22;9764;48.114;11.670;2023-03-01T15:17:53;20.00;87.00
19261;DHT22;9764;48.114;11.670;2023-03-01T15:20:25;20.00;86.90
19261;DHT22;9764;48.114;11.670;2023-03-01T15:22:56;20.00;86.80
19261;DHT22;9764;48.114;11.670;2023-03-01T15:25:27;19.90;86.70
19261;DHT22;9764;48.114;11.670;2023-03-01T15:27:57;19.90;86.50
19261;DHT22;9764;48.114;11.670;2023-03-01T15:30:27;19.90;86.40
19261;DHT22;9764;48.114;11.670;2023-03-01T15:33:28;19.90;86.30
19261;DHT22;9764;48.114;11.670;2023-03-01T15:35:59;19.90;86.20
19261;DHT22;9764;48.114;11.670;2023-03-01T15:38:35;19.90;86.10
19261;DHT22;9764;48.114;11.670;2023-03-01T15:41:22;19.90;85.90
19261;DHT22;9764;48.114;11.670;2023-03-01T15:43:51;19.90;85.80
19261;DHT22;9764;48.114;11.670;2023-03-01T15:46:28;19.80;85.60
19261;DHT22;9764;48.114;11.670;2023-03-01T15:49:02;19.80;85.50
19261;DHT22;9764;48.114;11.670;2023-03-01T15:51:36;19.80;85.40
19261;DHT22;9764;48.114;11.670;2023-03-01T15:54:15;19.80;85.30
19261;DHT22;9764;48.114;11.670;2023-03-01T15:56:45;19.80;85.30
19261;DHT22;9764;48.114;11.670;2023-03-01T15:59:14;19.80;85.20
19261;DHT22;9764;48.114;11.670;2023-03-01T16:01:43;19.80;85.10
19261;DHT22;9764;48.114;11.670;2023-03-01T16:04:13;19.80;85.10
19261;DHT22;9764;48.114;11.670;2023-03-01T16:06:48;19.70;85.00
19261;DHT22;9764;48.114;11.670;2023-03-01T16:09:23;19.70;85.00
19261;DHT22;9764;48.114;11.670;2023-03-01T16:11:52;19.80;85.00
19261;DHT22;9764;48.114;11.670;2023-03-01T16:14:24;19.70;84.90
19261;DHT22;9764;48.114;11.670;2023-03-01T16:16:52;19.70;84.90